»·PEaware :: SWA511 KPHX-KLAX

SWA511 :: KPHX-KLAX

FLIGHT INFORMATION

Flight Status: Arrived
Operator:
Southwest Airlines
More flights by this operator :: More flights under this callsign
Pilot: Dave M. (4986)
Aircraft: BOEING 737-800
(B738)
More flights by this aircraft type
Origin: KPHX Phoenix Sky Harbor Intl
United States
Destination: KLAX Los Angeles Intl
United States
More flights between these airports :: More routes between these airports
Route: +IZZZO6 MESSI ESTWD HLYWD1
File this flight plan on PilotEdge
Remarks: PBN / A1B1C1D1S1S2 NAV / RNVD1E2A1 REG / N8645A EET / KZLA0023 RMK / SIMBRIEF
Altitude:
(Current/Filed)
32,000ft
Speed:
(Current/Filed)
471kts
Departed: 15-Apr-18 07:54 AM
Arrived: 15-Apr-18 09:02 AM
Distance/Time
Traveled:
321nm/1:08
Distance/Time
To Go:
Arrived

Flight Plot

Page will automatically refresh every two minutes.

Flight plan parsing failed; only flown route is shown


Map Options




Map Legend


Flown Route
Filed Route
Departure Airport
Arrival Airport
Navaid (VOR, NDB)
Fix

Horizontal Profiles

Position Reports

Time Latitude Longitude Heading Altitude Ground
Speed
15-Apr-18 07:28 33.433698 -111.994831 53 1117ft 0kts
15-Apr-18 07:29 33.433698 -111.994831 53 1117ft 0kts
15-Apr-18 07:30 33.433698 -111.994831 53 1117ft 0kts
15-Apr-18 07:31 33.433698 -111.994831 53 1117ft 0kts
15-Apr-18 07:32 33.433698 -111.994831 53 1117ft 0kts
15-Apr-18 07:33 33.433698 -111.994831 53 1117ft 0kts
15-Apr-18 07:34 33.433698 -111.994831 53 1117ft 0kts
15-Apr-18 07:35 33.433697 -111.994831 53 1117ft 0kts
15-Apr-18 07:36 33.433698 -111.994831 53 1117ft 0kts
15-Apr-18 07:37 33.433698 -111.994831 53 1117ft 0kts
15-Apr-18 07:38 33.433698 -111.994831 53 1117ft 0kts
15-Apr-18 07:39 33.433698 -111.994831 53 1117ft 0kts
15-Apr-18 07:40 33.433697 -111.994831 53 1117ft 0kts
15-Apr-18 07:41 33.433535 -111.995209 110 1117ft 2kts
15-Apr-18 07:42 33.433749 -111.995335 187 1117ft 0kts
15-Apr-18 07:43 33.433748 -111.995335 187 1117ft 0kts
15-Apr-18 07:44 33.433748 -111.995335 187 1117ft 0kts
15-Apr-18 07:45 33.433178 -111.995423 187 1116ft 9kts
15-Apr-18 07:46 33.432128 -111.998833 269 1117ft 14kts
15-Apr-18 07:47 33.432144 -112.004108 269 1116ft 17kts
15-Apr-18 07:48 33.432147 -112.010204 269 1116ft 19kts
15-Apr-18 07:49 33.432129 -112.016672 268 1116ft 19kts
15-Apr-18 07:50 33.432174 -112.023438 269 1116ft 20kts
15-Apr-18 07:51 33.432084 -112.026787 224 1116ft 0kts
15-Apr-18 07:52 33.431480 -112.026999 184 1116ft 14kts
15-Apr-18 07:53 33.431043 -112.012031 90 1117ft 137kts
15-Apr-18 07:54 33.432128 -111.949059 88 3927ft 214kts
15-Apr-18 07:55 33.429873 -111.873901 119 7146ft 240kts
15-Apr-18 07:56 33.372388 -111.850207 206 10452ft 249kts
15-Apr-18 07:57 33.352767 -111.922264 284 13503ft 263kts
15-Apr-18 07:58 33.368195 -112.020029 278 15132ft 328kts
15-Apr-18 07:59 33.383828 -112.128844 277 18163ft 339kts
15-Apr-18 08:00 33.399709 -112.240926 277 20977ft 347kts
15-Apr-18 08:01 33.415869 -112.356181 277 23506ft 356kts
15-Apr-18 08:02 33.431106 -112.465795 277 25626ft 363kts
15-Apr-18 08:03 33.447714 -112.586189 277 27685ft 371kts
15-Apr-18 08:04 33.452294 -112.709122 270 29552ft 377kts
15-Apr-18 08:05 33.463210 -112.831490 288 31768ft 373kts
15-Apr-18 08:06 33.504127 -112.949076 289 32103ft 401kts
15-Apr-18 08:07 33.547854 -113.073902 289 32090ft 408kts
15-Apr-18 08:08 33.591734 -113.199705 289 32089ft 409kts
15-Apr-18 08:09 33.635311 -113.325220 289 32088ft 410kts
15-Apr-18 08:10 33.679053 -113.451693 289 32086ft 410kts
15-Apr-18 08:11 33.722547 -113.577954 289 32080ft 410kts
15-Apr-18 08:12 33.765342 -113.702783 289 32075ft 410kts
15-Apr-18 08:13 33.808441 -113.829236 289 32071ft 410kts
15-Apr-18 08:14 33.851382 -113.955559 289 32074ft 410kts
15-Apr-18 08:15 33.894260 -114.082146 289 32074ft 410kts
15-Apr-18 08:16 33.923335 -114.213865 279 32066ft 407kts
15-Apr-18 08:17 33.945687 -114.347094 280 32063ft 407kts
15-Apr-18 08:18 33.967094 -114.475031 280 32064ft 407kts
15-Apr-18 08:19 33.989355 -114.608649 280 32061ft 407kts
15-Apr-18 08:20 34.010659 -114.737614 279 32068ft 406kts
15-Apr-18 08:21 34.032513 -114.870903 279 32065ft 407kts
15-Apr-18 08:22 34.054274 -115.004289 279 32064ft 406kts
15-Apr-18 08:23 34.072063 -115.113541 278 32064ft 404kts
15-Apr-18 08:24 34.097104 -115.268192 278 32084ft 404kts
15-Apr-18 08:25 34.117843 -115.397248 278 32133ft 403kts
15-Apr-18 08:26 34.139044 -115.530011 278 32157ft 403kts
15-Apr-18 08:27 34.159738 -115.660448 277 32159ft 403kts
15-Apr-18 08:28 34.158804 -115.766772 261 32163ft 399kts
15-Apr-18 08:29 34.144962 -115.899745 262 32164ft 399kts
15-Apr-18 08:30 34.131592 -116.032495 262 32163ft 400kts
15-Apr-18 08:31 34.120511 -116.143435 262 32159ft 398kts
15-Apr-18 08:32 34.107452 -116.273774 262 30888ft 391kts
15-Apr-18 08:33 34.094063 -116.400983 261 28981ft 380kts
15-Apr-18 08:34 34.082432 -116.508913 261 27136ft 372kts
15-Apr-18 08:35 34.070323 -116.624647 262 25198ft 365kts
15-Apr-18 08:36 34.059286 -116.742821 261 23230ft 357kts
15-Apr-18 08:37 34.048241 -116.859909 261 21289ft 349kts
15-Apr-18 08:38 34.034851 -116.973770 260 19369ft 339kts
15-Apr-18 08:39 34.020908 -117.084108 261 17436ft 331kts
15-Apr-18 08:40 34.008062 -117.191695 262 15606ft 324kts
15-Apr-18 08:41 33.995560 -117.295695 262 14286ft 320kts
15-Apr-18 08:42 33.983167 -117.400505 262 13169ft 304kts
15-Apr-18 08:43 33.974518 -117.500409 280 12150ft 302kts
15-Apr-18 08:44 33.996921 -117.597662 285 11993ft 302kts
15-Apr-18 08:45 34.019483 -117.693377 280 11994ft 303kts
15-Apr-18 08:46 34.013247 -117.794347 263 12000ft 303kts
15-Apr-18 08:47 34.003331 -117.895211 263 12000ft 303kts
15-Apr-18 08:48 33.993377 -117.996012 263 11996ft 302kts
15-Apr-18 08:49 33.983144 -118.096517 263 10911ft 298kts
15-Apr-18 08:50 33.973299 -118.190290 264 7862ft 271kts
15-Apr-18 08:51 33.946505 -118.266407 207 5278ft 261kts
15-Apr-18 08:52 33.893590 -118.244135 105 5026ft 205kts
15-Apr-18 08:53 33.896880 -118.178631 81 4994ft 195kts
15-Apr-18 08:54 33.903439 -118.114184 81 4991ft 195kts
15-Apr-18 08:55 33.942751 -118.087220 331 4008ft 201kts
15-Apr-18 08:56 33.960632 -118.146972 265 2995ft 190kts
15-Apr-18 08:57 33.954953 -118.209559 263 2996ft 187kts
15-Apr-18 08:58 33.948773 -118.268740 264 2538ft 160kts
15-Apr-18 08:59 33.943992 -118.319264 262 1209ft 148kts
15-Apr-18 09:00 33.938931 -118.367018 263 388ft 137kts
15-Apr-18 09:01 33.935763 -118.401788 285 110ft 29kts
15-Apr-18 09:02 33.936189 -118.404971 263 110ft 1kts
15-Apr-18 09:03 33.936063 -118.406238 262 110ft 7kts
15-Apr-18 09:04 33.937539 -118.409109 333 110ft 15kts
15-Apr-18 09:05 33.940607 -118.411865 352 110ft 20kts
15-Apr-18 09:06 33.945470 -118.412595 353 110ft 13kts
15-Apr-18 09:07 33.947298 -118.411067 82 110ft 18kts
15-Apr-18 09:08 33.947992 -118.404279 82 110ft 22kts
15-Apr-18 09:09 33.947392 -118.401863 112 110ft 0kts
15-Apr-18 09:10 33.947392 -118.401863 112 110ft 0kts

Navigation Log

Ident Type
Flight plan parsing failed, navigation log unavailable